createdAt,value
2022-09-20T00:00:06.467Z,14.30
2022-09-20T00:00:38.809Z,14.30
2022-09-20T00:01:13.162Z,14.30
2022-09-20T00:01:45.191Z,14.30
2022-09-20T00:02:17.035Z,14.20
2022-09-20T00:02:48.855Z,14.70
2022-09-20T00:03:20.574Z,14.20
2022-09-20T00:03:55.653Z,14.60
2022-09-20T00:04:27.417Z,14.70
2022-09-20T00:04:59.191Z,14.20
2022-09-20T00:05:37.329Z,14.20
2022-09-20T00:06:12.915Z,14.10
2022-09-20T00:06:44.633Z,14.10
2022-09-20T00:07:16.449Z,14.20
2022-09-20T00:07:48.313Z,14.20
2022-09-20T00:08:20.029Z,14.20
2022-09-20T00:08:52.901Z,14.20
2022-09-20T00:09:24.638Z,14.10
2022-09-20T00:09:57.599Z,14.90
2022-09-20T00:10:31.052Z,14.10
2022-09-20T00:11:10.139Z,14.10
2022-09-20T00:11:41.866Z,14.10
2022-09-20T00:12:13.699Z,14.10
2022-09-20T00:12:45.442Z,14.10
2022-09-20T00:13:17.157Z,14.10
2022-09-20T00:13:50.783Z,14.60
2022-09-20T00:14:22.870Z,15.80
2022-09-20T00:14:54.574Z,14.40
2022-09-20T00:15:26.338Z,14.00
2022-09-20T00:15:58.203Z,14.00
2022-09-20T00:16:34.340Z,14.10
2022-09-20T00:17:06.391Z,18.40
2022-09-20T00:17:38.230Z,14.00
2022-09-20T00:18:11.311Z,15.00
2022-09-20T00:18:43.278Z,14.00
2022-09-20T00:19:21.748Z,14.00
2022-09-20T00:19:53.502Z,14.00
2022-09-20T00:20:26.101Z,14.00
2022-09-20T00:20:57.932Z,15.40
2022-09-20T00:21:31.365Z,15.40
2022-09-20T00:22:03.094Z,15.30
2022-09-20T00:22:34.860Z,14.00
2022-09-20T00:23:06.594Z,14.00
2022-09-20T00:23:38.299Z,12.10
2022-09-20T00:24:11.534Z,14.50
2022-09-20T00:24:48.192Z,13.90
2022-09-20T00:25:20.785Z,14.30
2022-09-20T00:26:03.313Z,15.10
2022-09-20T00:26:36.397Z,13.90
2022-09-20T00:27:08.216Z,13.90
2022-09-20T00:27:39.965Z,13.90
2022-09-20T00:28:12.143Z,13.90
2022-09-20T00:28:44.325Z,13.90
2022-09-20T00:29:16.760Z,13.90
2022-09-20T00:29:48.602Z,13.90
2022-09-20T00:30:21.014Z,15.20
2022-09-20T00:30:54.597Z,13.90
2022-09-20T00:31:26.634Z,13.90
2022-09-20T00:31:58.506Z,13.90
2022-09-20T00:32:31.382Z,13.90
2022-09-20T00:33:03.433Z,13.80
2022-09-20T00:33:54.089Z,13.90
2022-09-20T00:34:44.867Z,13.90
2022-09-20T00:35:16.745Z,15.10
2022-09-20T00:35:49.064Z,13.80
2022-09-20T00:36:21.111Z,13.80
2022-09-20T00:36:55.045Z,13.80
2022-09-20T00:37:26.884Z,14.50
2022-09-20T00:37:58.689Z,13.80
2022-09-20T00:38:30.474Z,13.80
2022-09-20T00:39:03.451Z,14.40
2022-09-20T00:39:35.242Z,13.70
2022-09-20T00:40:12.390Z,14.00
2022-09-20T00:40:45.280Z,13.80
2022-09-20T00:41:17.126Z,13.70
2022-09-20T00:41:48.904Z,13.70
2022-09-20T00:42:28.339Z,13.70
2022-09-20T00:43:00.227Z,13.70
2022-09-20T00:43:50.533Z,13.70
2022-09-20T00:45:01.593Z,13.70
2022-09-20T00:45:34.191Z,13.70
2022-09-20T00:46:49.255Z,13.80
2022-09-20T00:47:36.367Z,13.80
2022-09-20T00:48:30.717Z,13.80
2022-09-20T00:49:18.780Z,13.80
2022-09-20T05:46:14.574Z,10.90
2022-09-20T05:48:05.218Z,10.90
2022-09-20T05:49:04.787Z,10.90
2022-09-20T05:50:39.480Z,10.80
2022-09-20T05:51:46.994Z,10.90
2022-09-20T05:52:34.128Z,10.70
2022-09-20T05:53:24.284Z,10.80
2022-09-20T05:54:35.273Z,10.70
2022-09-20T05:55:24.559Z,10.70
2022-09-20T05:56:17.847Z,10.70
2022-09-20T05:57:08.351Z,10.70
2022-09-20T05:57:56.469Z,10.70
2022-09-20T05:58:55.606Z,10.70
2022-09-20T05:59:45.288Z,10.70
2022-09-20T06:00:21.445Z,10.70
2022-09-20T06:01:27.310Z,10.70
2022-09-20T06:02:17.468Z,10.70
2022-09-20T06:03:17.386Z,10.70
2022-09-20T06:04:05.686Z,10.60
2022-09-20T06:04:46.844Z,10.60
2022-09-20T06:05:38.146Z,10.70
2022-09-20T06:06:14.499Z,10.60
2022-09-20T06:06:57.638Z,10.70
2022-09-20T06:07:32.468Z,10.70
2022-09-20T06:08:16.816Z,10.70
2022-09-20T06:08:49.125Z,10.70
2022-09-20T06:09:29.830Z,10.60
2022-09-20T06:10:31.043Z,11.10
2022-09-20T06:11:25.621Z,10.60
2022-09-20T06:12:24.986Z,10.60
2022-09-20T06:13:24.301Z,10.60
2022-09-20T06:14:27.712Z,10.60
2022-09-20T06:15:19.540Z,10.90
2022-09-20T06:15:58.483Z,10.60
2022-09-20T06:17:00.981Z,10.60
2022-09-20T06:17:53.646Z,10.60
2022-09-20T06:18:28.873Z,10.60
2022-09-20T06:19:22.001Z,10.60
2022-09-20T06:20:25.736Z,10.70
2022-09-20T06:21:42.677Z,10.60
2022-09-20T06:22:24.608Z,10.60
2022-09-20T06:23:01.018Z,10.60
2022-09-20T06:23:35.509Z,10.70
2022-09-20T06:24:32.522Z,10.60
2022-09-20T06:25:07.213Z,10.60
2022-09-20T06:25:56.022Z,10.60
2022-09-20T06:26:33.880Z,10.60
2022-09-20T06:27:21.966Z,11.70
2022-09-20T06:28:08.120Z,10.60
2022-09-20T06:28:47.225Z,10.60
2022-09-20T06:29:29.293Z,10.60
2022-09-20T06:30:05.883Z,12.60
2022-09-20T06:30:44.957Z,10.60
2022-09-20T06:31:18.209Z,10.60
2022-09-20T06:31:49.972Z,10.80
2022-09-20T06:32:22.690Z,12.10
2022-09-20T06:32:55.675Z,10.60
2022-09-20T06:33:29.663Z,10.50
2022-09-20T06:34:39.635Z,10.60
2022-09-20T06:35:11.842Z,10.60
2022-09-20T06:35:58.857Z,10.60
2022-09-20T06:36:54.001Z,10.60
2022-09-20T06:38:08.914Z,10.60
2022-09-20T06:39:20.860Z,10.70
2022-09-20T06:40:39.756Z,10.60
2022-09-20T06:41:28.276Z,10.70
2022-09-20T06:42:01.088Z,10.80
2022-09-20T06:42:34.026Z,10.70
2022-09-20T06:43:06.350Z,11.60
2022-09-20T06:43:40.380Z,11.30
2022-09-20T06:44:12.118Z,11.80
2022-09-20T06:44:43.885Z,10.70
2022-09-20T06:45:15.608Z,10.60
2022-09-20T06:45:48.488Z,10.70
2022-09-20T06:46:20.780Z,10.60
2022-09-20T06:47:27.313Z,10.70
2022-09-20T06:48:02.083Z,10.70
2022-09-20T06:48:34.516Z,10.70
2022-09-20T06:49:10.112Z,12.60
2022-09-20T06:49:42.762Z,10.70
2022-09-20T06:50:16.308Z,10.70
2022-09-20T06:50:48.143Z,10.70
2022-09-20T06:51:20.639Z,10.70
2022-09-20T06:51:52.390Z,10.70
2022-09-20T06:52:24.352Z,10.70
2022-09-20T06:52:56.615Z,12.30
2022-09-20T06:53:31.021Z,10.70
2022-09-20T06:54:03.890Z,10.70
2022-09-20T06:54:37.793Z,10.80
2022-09-20T06:55:26.075Z,10.70
2022-09-20T06:56:01.654Z,10.70
2022-09-20T06:56:36.750Z,10.70
2022-09-20T06:57:10.533Z,10.70
2022-09-20T06:57:42.328Z,10.70
2022-09-20T06:58:14.300Z,10.70
2022-09-20T06:58:46.943Z,10.80
2022-09-20T06:59:18.806Z,10.70
2022-09-20T06:59:50.557Z,10.60
2022-09-20T07:00:22.646Z,10.70
2022-09-20T07:02:02.591Z,10.80
2022-09-20T07:02:34.374Z,10.80
2022-09-20T07:03:07.022Z,10.80
2022-09-20T07:03:38.830Z,10.80
2022-09-20T07:04:10.650Z,10.80
2022-09-20T07:04:43.574Z,10.80
2022-09-20T07:05:16.853Z,10.80
2022-09-20T07:05:48.621Z,15.40
2022-09-20T07:06:20.385Z,10.90
2022-09-20T07:06:53.959Z,10.80
2022-09-20T07:07:26.117Z,10.80
2022-09-20T07:08:30.739Z,10.80
2022-09-20T07:09:35.733Z,10.80
2022-09-20T07:10:07.925Z,10.80
2022-09-20T07:10:39.684Z,10.80
2022-09-20T07:11:15.725Z,10.80
2022-09-20T07:11:47.640Z,10.80
2022-09-20T07:12:19.394Z,10.80
2022-09-20T07:12:51.134Z,10.90
2022-09-20T07:13:24.010Z,12.50
2022-09-20T07:13:58.200Z,10.80
2022-09-20T07:14:30.029Z,10.70
2022-09-20T07:15:02.015Z,10.80
2022-09-20T07:15:34.792Z,10.80
2022-09-20T07:16:08.623Z,10.80
2022-09-20T07:16:40.425Z,10.90
2022-09-20T07:17:13.213Z,10.80
2022-09-20T07:17:45.534Z,10.70
2022-09-20T07:18:17.346Z,10.90
2022-09-20T07:18:49.428Z,11.40
2022-09-20T07:19:22.727Z,10.90
2022-09-20T07:19:57.096Z,10.90
2022-09-20T07:20:28.869Z,10.20
2022-09-20T07:21:01.391Z,10.80
2022-09-20T07:21:33.174Z,10.90
2022-09-20T07:22:05.057Z,10.90
2022-09-20T07:22:36.939Z,10.90
2022-09-20T07:23:08.714Z,10.90
2022-09-20T07:23:40.593Z,11.50
2022-09-20T07:24:15.010Z,12.40
2022-09-20T07:24:48.178Z,12.50
2022-09-20T07:25:20.697Z,10.90
2022-09-20T07:25:53.626Z,10.90
2022-09-20T07:26:28.454Z,10.90
2022-09-20T07:27:02.775Z,10.90
2022-09-20T07:27:34.577Z,10.70
2022-09-20T07:28:06.379Z,12.70
2022-09-20T07:28:38.180Z,11.00
2022-09-20T07:29:10.058Z,11.00
2022-09-20T07:29:41.987Z,11.00
2022-09-20T07:30:14.857Z,11.00
2022-09-20T07:30:47.783Z,11.70
2022-09-20T07:31:21.686Z,11.90
2022-09-20T07:31:53.854Z,11.00
2022-09-20T07:32:27.050Z,10.90
2022-09-20T07:33:00.177Z,11.50
2022-09-20T07:33:31.871Z,12.30
2022-09-20T07:34:05.640Z,11.00
2022-09-20T07:34:37.510Z,12.70
2022-09-20T07:35:10.531Z,9.60
2022-09-20T07:35:42.334Z,11.00
2022-09-20T07:36:15.273Z,10.80
2022-09-20T07:36:48.340Z,11.00
2022-09-20T07:37:20.314Z,11.40
2022-09-20T07:37:59.496Z,11.40
2022-09-20T07:38:31.241Z,11.00
2022-09-20T07:39:03.109Z,11.10
2022-09-20T07:39:34.872Z,11.00
2022-09-20T07:40:07.786Z,11.00
2022-09-20T07:40:39.630Z,11.10
2022-09-20T07:41:11.446Z,11.00
2022-09-20T07:41:48.391Z,11.00
2022-09-20T07:42:20.367Z,11.10
2022-09-20T07:42:56.121Z,12.20
2022-09-20T07:43:29.697Z,11.10
2022-09-20T07:44:20.842Z,11.60
2022-09-20T07:44:53.103Z,11.20
2022-09-20T07:45:25.205Z,11.10
2022-09-20T07:45:59.325Z,11.20
2022-09-20T07:46:36.015Z,11.80
2022-09-20T07:47:10.163Z,12.30
2022-09-20T07:47:44.815Z,11.10
2022-09-20T07:48:16.576Z,11.10
2022-09-20T07:48:48.433Z,11.10
2022-09-20T07:49:21.858Z,11.10
2022-09-20T07:49:53.757Z,13.50
2022-09-20T07:50:25.886Z,11.10
2022-09-20T07:51:04.683Z,11.20
2022-09-20T07:51:38.557Z,11.10
2022-09-20T07:52:11.195Z,11.10
2022-09-20T07:52:43.119Z,11.20
2022-09-20T07:53:14.850Z,11.20
2022-09-20T07:53:46.554Z,11.80
2022-09-20T07:54:18.869Z,12.60
2022-09-20T07:54:50.622Z,11.20
2022-09-20T07:55:22.378Z,11.20
2022-09-20T07:56:01.264Z,11.20
2022-09-20T07:56:33.045Z,16.00
2022-09-20T07:57:05.670Z,11.10
2022-09-20T07:57:38.520Z,11.10
2022-09-20T07:58:47.408Z,11.20
2022-09-20T07:59:24.206Z,11.20
2022-09-20T07:59:55.959Z,11.20
2022-09-20T08:00:27.707Z,11.30
2022-09-20T08:01:08.113Z,11.30
2022-09-20T08:01:40.775Z,11.50
2022-09-20T08:02:16.820Z,11.20
2022-09-20T08:02:48.743Z,11.30
2022-09-20T08:03:20.772Z,11.30
2022-09-20T08:03:52.941Z,11.30
2022-09-20T08:04:24.698Z,11.20
2022-09-20T08:04:56.403Z,11.30
2022-09-20T08:05:28.198Z,11.30
2022-09-20T08:06:06.713Z,11.30
2022-09-20T08:06:41.613Z,11.40
2022-09-20T08:07:13.440Z,11.40
2022-09-20T08:08:18.661Z,11.40
2022-09-20T08:08:51.609Z,11.30
2022-09-20T08:09:23.376Z,11.40
2022-09-20T08:10:27.558Z,11.40
2022-09-20T08:11:06.750Z,11.40
2022-09-20T08:14:08.567Z,11.50
2022-09-20T08:14:41.205Z,11.40
2022-09-20T08:16:17.799Z,11.50
2022-09-20T08:16:50.366Z,11.50
2022-09-20T08:17:22.193Z,11.50
2022-09-20T08:18:28.306Z,11.60
2022-09-20T08:19:02.664Z,11.60
2022-09-20T08:19:34.945Z,11.50
2022-09-20T08:20:39.506Z,11.60
2022-09-20T08:21:11.662Z,11.60
2022-09-20T08:21:44.345Z,11.60
2022-09-20T08:22:16.071Z,11.60
2022-09-20T08:23:06.261Z,11.70
2022-09-20T08:24:14.463Z,11.70
2022-09-20T08:24:46.990Z,11.70
2022-09-20T08:25:18.735Z,11.60
2022-09-20T08:25:50.501Z,11.70
2022-09-20T08:26:26.896Z,11.70
2022-09-20T08:26:59.140Z,11.60
2022-09-20T08:28:36.075Z,11.70
2022-09-20T08:29:40.511Z,11.70
2022-09-20T08:30:12.332Z,11.70
2022-09-20T08:30:44.074Z,11.70
2022-09-20T08:31:21.176Z,11.70
2022-09-20T08:31:55.683Z,11.70
2022-09-20T08:32:59.914Z,11.70
2022-09-20T08:33:32.837Z,11.80
2022-09-20T08:34:07.045Z,11.70
2022-09-20T08:34:40.631Z,11.70
2022-09-20T08:35:14.512Z,11.70
2022-09-20T08:35:49.469Z,11.70
2022-09-20T08:36:24.497Z,11.70
2022-09-20T08:36:56.590Z,11.70
2022-09-20T08:37:28.410Z,11.70
2022-09-20T08:39:57.196Z,11.80
2022-09-20T08:40:00.999Z,11.70
2022-09-20T08:40:33.518Z,11.80
2022-09-20T08:41:17.738Z,11.80
2022-09-20T08:41:57.345Z,11.80
2022-09-20T08:42:42.126Z,11.80
2022-09-20T08:43:22.297Z,11.80
2022-09-20T08:44:05.957Z,11.90
2022-09-20T08:44:58.588Z,11.90
2022-09-20T08:45:34.984Z,11.90
2022-09-20T08:46:13.924Z,11.90
2022-09-20T08:46:50.573Z,11.90
2022-09-20T08:47:38.161Z,15.60
2022-09-20T08:48:16.720Z,11.90
2022-09-20T08:48:48.824Z,11.90
2022-09-20T08:49:28.112Z,12.00
2022-09-20T08:50:09.165Z,11.90
2022-09-20T08:50:42.001Z,12.00
2022-09-20T08:51:22.647Z,12.40
2022-09-20T08:51:58.144Z,12.60
2022-09-20T08:52:37.421Z,12.30
2022-09-20T08:53:14.920Z,11.50
2022-09-20T08:53:50.843Z,12.00
2022-09-20T08:54:24.120Z,12.00
2022-09-20T08:54:59.932Z,12.00
2022-09-20T08:55:39.940Z,9.50
2022-09-20T08:56:11.816Z,12.00
2022-09-20T08:56:45.366Z,12.00
2022-09-20T08:57:20.334Z,13.60
2022-09-20T08:57:54.858Z,12.10
2022-09-20T08:58:27.505Z,12.10
2022-09-20T08:59:00.225Z,12.10
2022-09-20T08:59:32.436Z,12.00
2022-09-20T09:00:06.315Z,12.10
2022-09-20T09:00:46.867Z,12.10
2022-09-20T09:01:22.548Z,12.70
2022-09-20T09:01:54.513Z,12.10
2022-09-20T09:02:26.455Z,12.10
2022-09-20T09:03:04.300Z,12.00
2022-09-20T09:03:36.090Z,12.10
2022-09-20T09:04:13.153Z,12.20
2022-09-20T09:04:45.963Z,12.20
2022-09-20T09:05:31.499Z,13.10
2022-09-20T09:06:05.615Z,12.20
2022-09-20T09:06:41.499Z,12.20
2022-09-20T09:07:15.809Z,12.30
2022-09-20T09:07:47.677Z,12.20
2022-09-20T09:08:29.009Z,12.20
2022-09-20T09:09:00.913Z,8.90
2022-09-20T09:09:37.550Z,12.70
2022-09-20T09:10:10.068Z,12.30
2022-09-20T09:10:51.231Z,12.30
2022-09-20T09:11:23.431Z,12.30
2022-09-20T09:11:56.921Z,12.30
2022-09-20T09:12:35.255Z,12.50
2022-09-20T09:13:07.689Z,12.30
2022-09-20T09:14:07.008Z,12.30
2022-09-20T09:14:48.612Z,12.30
2022-09-20T09:15:34.920Z,12.30
2022-09-20T09:16:15.412Z,13.70
2022-09-20T09:16:47.362Z,12.40
2022-09-20T09:17:28.494Z,12.40
2022-09-20T09:18:01.301Z,12.40
2022-09-20T09:18:37.475Z,12.40
2022-09-20T09:19:34.444Z,12.40
2022-09-20T09:20:21.630Z,12.40
2022-09-20T09:21:28.967Z,12.50
2022-09-20T09:22:03.326Z,13.70
2022-09-20T09:22:38.236Z,13.80
2022-09-20T09:23:25.286Z,12.50
2022-09-20T09:24:06.412Z,15.60
2022-09-20T09:24:38.268Z,12.50
2022-09-20T09:25:23.504Z,12.50
2022-09-20T09:25:56.396Z,12.50
2022-09-20T09:26:35.123Z,13.70
2022-09-20T09:27:19.283Z,12.50
2022-09-20T09:27:56.092Z,12.60
2022-09-20T09:28:31.598Z,12.50
2022-09-20T09:29:19.964Z,12.60
2022-09-20T09:29:56.402Z,12.60
2022-09-20T09:30:31.790Z,12.60
2022-09-20T09:31:22.192Z,12.60
2022-09-20T09:31:57.265Z,12.60
2022-09-20T09:32:32.797Z,12.60
2022-09-20T09:33:21.541Z,12.60
2022-09-20T09:33:53.368Z,12.50
2022-09-20T09:34:26.605Z,12.60
2022-09-20T09:35:24.131Z,12.70
2022-09-20T09:36:04.661Z,12.70
2022-09-20T09:36:44.402Z,11.70
2022-09-20T09:37:29.251Z,12.70
2022-09-20T09:38:02.349Z,12.70
2022-09-20T09:38:37.538Z,12.70
2022-09-20T09:39:33.338Z,12.70
2022-09-20T09:40:16.494Z,12.80
2022-09-20T09:40:56.028Z,12.80
2022-09-20T09:41:35.549Z,12.70
2022-09-20T09:42:28.765Z,12.80
2022-09-20T09:43:04.052Z,12.80
2022-09-20T09:43:37.901Z,14.50
2022-09-20T09:44:24.720Z,14.10
2022-09-20T09:45:12.266Z,12.80
2022-09-20T09:45:44.094Z,12.90
2022-09-20T09:46:21.604Z,12.80
2022-09-20T09:46:54.097Z,12.90
2022-09-20T09:47:29.079Z,12.90
2022-09-20T09:48:02.155Z,12.90
2022-09-20T09:48:35.292Z,12.90
2022-09-20T09:49:16.685Z,12.90
2022-09-20T09:50:02.656Z,12.90
2022-09-20T09:50:35.703Z,12.90
2022-09-20T09:51:16.612Z,12.90
2022-09-20T09:52:03.697Z,13.00
2022-09-20T09:52:36.313Z,12.90
2022-09-20T09:53:26.468Z,13.00
2022-09-20T09:53:58.671Z,13.00
2022-09-20T09:54:37.225Z,14.40
2022-09-20T09:55:13.932Z,13.00
2022-09-20T09:56:14.219Z,13.10
2022-09-20T09:57:03.410Z,13.10
2022-09-20T09:57:43.868Z,13.10
2022-09-20T09:58:27.467Z,13.10
2022-09-20T09:59:20.005Z,13.80
2022-09-20T09:59:57.875Z,13.10
2022-09-20T10:00:31.388Z,13.10
2022-09-20T10:01:11.581Z,14.80
2022-09-20T10:01:55.564Z,13.20
2022-09-20T10:02:45.713Z,13.20
2022-09-20T10:03:40.088Z,13.20
2022-09-20T10:04:46.937Z,13.20
2022-09-20T10:05:39.244Z,13.20
2022-09-20T10:06:14.938Z,13.20
2022-09-20T10:06:58.054Z,13.00
2022-09-20T10:07:59.569Z,14.40
2022-09-20T10:08:45.143Z,13.30
2022-09-20T10:09:36.074Z,13.30
2022-09-20T10:10:26.566Z,14.10
2022-09-20T10:11:03.759Z,17.20
2022-09-20T10:12:03.057Z,13.40
2022-09-20T10:13:03.439Z,13.40
2022-09-20T10:14:05.306Z,13.40
2022-09-20T10:14:58.185Z,13.40
2022-09-20T10:15:46.596Z,13.40
2022-09-20T10:16:55.586Z,13.50
2022-09-20T10:17:50.631Z,13.50
2022-09-20T10:18:40.921Z,13.50
2022-09-20T10:19:51.423Z,13.50
2022-09-20T10:20:53.153Z,13.50
2022-09-20T10:21:43.520Z,13.60
2022-09-20T10:23:06.780Z,13.60
2022-09-20T10:24:13.253Z,13.60
2022-09-20T10:25:02.914Z,13.60
2022-09-20T10:26:04.433Z,13.70
2022-09-20T10:27:10.770Z,13.70
2022-09-20T10:27:58.742Z,13.70
2022-09-20T10:28:48.614Z,13.70
2022-09-20T10:29:47.653Z,13.70
2022-09-20T10:30:24.085Z,14.10
2022-09-20T10:31:10.959Z,13.70
2022-09-20T10:32:05.473Z,13.80
2022-09-20T10:33:05.342Z,13.80
2022-09-20T10:33:49.369Z,13.80
2022-09-20T10:34:39.751Z,13.90
2022-09-20T10:35:14.418Z,13.90
2022-09-20T10:36:00.297Z,13.90
2022-09-20T10:36:31.995Z,15.40
2022-09-20T10:37:24.249Z,14.60
2022-09-20T10:38:08.274Z,14.00
2022-09-20T10:39:05.962Z,13.90
2022-09-20T10:39:43.228Z,14.10
2022-09-20T10:40:14.988Z,14.00
2022-09-20T10:41:31.337Z,14.00
2022-09-20T10:42:56.560Z,14.10
2022-09-20T10:43:42.468Z,14.10
2022-09-20T10:44:32.460Z,16.00
2022-09-20T10:46:03.353Z,14.10
2022-09-20T10:46:56.874Z,14.20
2022-09-20T10:47:45.386Z,14.20
2022-09-20T10:48:37.763Z,14.20
2022-09-20T10:49:24.940Z,14.20
2022-09-20T10:50:29.135Z,14.20
2022-09-20T10:51:13.181Z,14.30
2022-09-20T10:52:01.821Z,14.30
2022-09-20T10:52:57.245Z,14.80
2022-09-20T10:53:36.541Z,14.30
2022-09-20T10:54:25.291Z,14.40
2022-09-20T10:55:06.301Z,14.80
2022-09-20T10:55:57.550Z,14.30
2022-09-20T10:56:41.338Z,16.30
2022-09-20T10:57:50.408Z,14.40
2022-09-20T10:58:41.293Z,14.40
2022-09-20T10:59:17.198Z,15.00
2022-09-20T10:59:57.834Z,14.70
2022-09-20T11:00:42.132Z,14.50
2022-09-20T11:01:58.126Z,14.50
2022-09-20T11:02:50.614Z,14.50
2022-09-20T11:03:52.995Z,14.60
2022-09-20T11:04:42.881Z,14.60
2022-09-20T11:05:33.019Z,14.60
2022-09-20T11:06:13.557Z,14.60
2022-09-20T11:07:07.375Z,14.60
2022-09-20T11:08:22.727Z,14.70
2022-09-20T11:09:00.228Z,14.60
2022-09-20T11:09:56.621Z,14.60
2022-09-20T11:10:37.726Z,14.70
2022-09-20T11:11:40.344Z,14.70
2022-09-20T11:12:38.199Z,14.70
2022-09-20T11:13:26.091Z,14.80
2022-09-20T11:14:06.185Z,14.80
2022-09-20T11:52:17.937Z,16.00
2022-09-20T11:54:14.525Z,16.10
2022-09-20T11:56:11.044Z,16.10
2022-09-20T11:59:35.232Z,16.20
2022-09-20T12:01:34.627Z,16.30
2022-09-20T12:02:35.986Z,16.30
2022-09-20T12:04:53.159Z,16.40
2022-09-20T12:05:30.030Z,16.40
2022-09-20T12:06:05.662Z,16.40
2022-09-20T12:06:41.362Z,16.40
2022-09-20T12:07:44.617Z,16.40
2022-09-20T12:08:41.596Z,16.30
2022-09-20T12:09:29.040Z,16.40
2022-09-20T12:10:59.208Z,16.40
2022-09-20T12:11:38.838Z,16.40
2022-09-20T12:12:31.096Z,16.50
2022-09-20T12:13:06.670Z,16.50
2022-09-20T12:14:19.796Z,16.50
2022-09-20T12:14:58.794Z,16.50
2022-09-20T12:15:39.048Z,16.60
2022-09-20T12:16:17.668Z,16.60
2022-09-20T12:17:47.174Z,16.60
2022-09-20T12:18:35.621Z,16.50
2022-09-20T12:19:12.153Z,16.50
2022-09-20T12:19:43.930Z,16.50
2022-09-20T12:20:38.685Z,16.50
2022-09-20T12:21:16.028Z,16.50
2022-09-20T12:21:59.679Z,16.50
2022-09-20T12:22:31.497Z,16.60
2022-09-20T12:23:43.419Z,16.60
2022-09-20T12:26:02.105Z,16.60
2022-09-20T12:26:39.924Z,16.60
2022-09-20T12:27:29.110Z,16.70
2022-09-20T12:28:01.009Z,16.60
2022-09-20T12:29:24.524Z,16.70
2022-09-20T12:30:04.956Z,16.70
2022-09-20T12:30:36.750Z,16.70
2022-09-20T12:31:28.966Z,16.70
2022-09-20T12:32:03.034Z,16.70
2022-09-20T12:32:44.859Z,16.70
2022-09-20T12:33:22.080Z,16.70
2022-09-20T12:34:11.810Z,16.70
2022-09-20T12:34:43.683Z,16.70
2022-09-20T12:35:37.084Z,16.80
2022-09-20T12:36:18.425Z,16.70
2022-09-20T12:36:58.420Z,16.80
2022-09-20T12:38:20.873Z,16.80
2022-09-20T12:39:36.536Z,16.80
2022-09-20T12:40:16.314Z,16.80
2022-09-20T12:41:01.556Z,16.90
2022-09-20T12:41:56.032Z,16.90
2022-09-20T12:42:31.569Z,16.90
2022-09-20T12:43:03.526Z,16.90
2022-09-20T12:43:56.085Z,16.90
2022-09-20T12:44:36.628Z,16.90
2022-09-20T12:45:18.436Z,16.90
2022-09-20T12:46:02.585Z,16.80
2022-09-20T12:46:50.660Z,16.90
2022-09-20T12:47:24.265Z,16.90
2022-09-20T12:47:56.737Z,16.90
2022-09-20T12:48:35.894Z,16.90
2022-09-20T12:49:44.807Z,17.00
2022-09-20T12:50:35.492Z,17.00
2022-09-20T12:51:48.074Z,16.90
2022-09-20T12:52:54.086Z,17.00
2022-09-20T12:53:26.088Z,17.00
2022-09-20T12:54:07.215Z,17.00
2022-09-20T12:54:52.312Z,17.00
2022-09-20T12:55:29.892Z,17.00
2022-09-20T12:56:01.940Z,17.00
2022-09-20T12:56:42.639Z,17.00
2022-09-20T12:57:32.627Z,17.00
2022-09-20T12:58:21.011Z,17.40
2022-09-20T12:58:55.260Z,17.20
2022-09-20T12:59:30.970Z,17.10
2022-09-20T13:00:06.185Z,17.10
2022-09-20T13:00:46.491Z,17.10
2022-09-20T13:01:18.357Z,17.10
2022-09-20T13:01:50.559Z,17.10
2022-09-20T13:03:02.443Z,17.00
2022-09-20T13:03:42.460Z,17.10
2022-09-20T13:04:54.076Z,19.90
2022-09-20T13:05:38.155Z,17.00
2022-09-20T13:06:12.333Z,17.10
2022-09-20T13:06:45.008Z,17.20
2022-09-20T13:07:44.033Z,17.20
2022-09-20T13:08:25.010Z,17.20
2022-09-20T13:09:04.645Z,17.10
2022-09-20T13:09:36.527Z,17.20
2022-09-20T13:11:16.769Z,17.20
2022-09-20T13:11:55.939Z,17.20
2022-09-20T13:12:28.648Z,14.40
2022-09-20T13:13:17.273Z,17.20
2022-09-20T13:14:16.070Z,17.30
2022-09-20T13:14:47.997Z,17.30
2022-09-20T13:15:21.864Z,17.30
2022-09-20T13:15:55.373Z,17.20
2022-09-20T13:16:36.198Z,17.30
2022-09-20T13:17:27.992Z,17.30
2022-09-20T13:18:02.067Z,17.30
2022-09-20T13:18:36.282Z,14.60
2022-09-20T13:19:40.381Z,17.30
2022-09-20T13:20:20.386Z,17.30
2022-09-20T13:20:53.812Z,17.30
2022-09-20T13:21:27.323Z,17.30
2022-09-20T13:22:13.159Z,17.30
2022-09-20T13:22:47.466Z,17.40
2022-09-20T13:23:26.140Z,17.30
2022-09-20T13:23:59.470Z,17.30
2022-09-20T13:24:48.303Z,17.30
2022-09-20T13:25:22.414Z,17.40
2022-09-20T13:25:58.139Z,17.40
2022-09-20T13:26:35.805Z,17.40
2022-09-20T13:27:39.570Z,17.40
2022-09-20T13:28:30.135Z,17.40
2022-09-20T13:29:04.634Z,17.40
2022-09-20T13:29:42.249Z,17.40
2022-09-20T13:30:17.444Z,17.40
2022-09-20T13:31:21.332Z,17.40
2022-09-20T13:31:56.380Z,17.40
2022-09-20T13:32:32.177Z,17.50
2022-09-20T13:33:24.966Z,17.40
2022-09-20T13:34:19.697Z,17.50
2022-09-20T13:35:10.424Z,17.50
2022-09-20T13:35:47.055Z,17.50
2022-09-20T13:36:30.113Z,17.50
2022-09-20T13:37:02.833Z,17.50
2022-09-20T13:37:42.916Z,17.50
2022-09-20T13:38:25.055Z,20.10
2022-09-20T13:38:58.462Z,17.50
2022-09-20T13:39:37.649Z,17.50
2022-09-20T13:40:47.708Z,17.50
2022-09-20T13:41:19.573Z,17.50
2022-09-20T13:41:51.922Z,17.50
2022-09-20T13:42:24.493Z,17.50
2022-09-20T13:43:22.027Z,15.20
2022-09-20T13:43:51.957Z,17.50
2022-09-20T13:44:25.425Z,17.60
2022-09-20T13:44:59.170Z,17.70
2022-09-20T13:45:34.099Z,17.40
2022-09-20T13:46:16.434Z,17.60
2022-09-20T13:47:26.786Z,17.60
2022-09-20T13:48:01.437Z,17.50
2022-09-20T13:49:24.736Z,17.60
2022-09-20T13:50:10.529Z,17.60
2022-09-20T13:50:47.106Z,17.60
2022-09-20T13:51:25.727Z,17.60
2022-09-20T13:51:57.558Z,17.60
2022-09-20T13:52:31.811Z,17.60
2022-09-20T13:53:39.323Z,17.60
2022-09-20T13:54:22.035Z,17.60
2022-09-20T13:54:55.319Z,17.70
2022-09-20T13:55:34.252Z,17.60
2022-09-20T13:56:24.200Z,17.70
2022-09-20T13:57:03.204Z,17.70
2022-09-20T13:57:35.245Z,17.70
2022-09-20T13:58:25.341Z,17.70
2022-09-20T13:59:04.293Z,17.70
2022-09-20T13:59:44.885Z,17.70
2022-09-20T14:00:17.633Z,17.70
2022-09-20T14:00:58.173Z,17.70
2022-09-20T14:01:33.549Z,17.70
2022-09-20T14:02:40.168Z,17.70
2022-09-20T14:03:17.624Z,17.70
2022-09-20T14:03:49.647Z,17.60
2022-09-20T14:04:24.687Z,17.70
2022-09-20T14:04:59.966Z,17.70
2022-09-20T14:05:32.053Z,17.70
2022-09-20T14:06:13.497Z,17.70
2022-09-20T14:06:46.233Z,17.80
2022-09-20T14:07:18.238Z,17.70
2022-09-20T14:07:51.017Z,17.80
2022-09-20T14:18:53.201Z,17.80
2022-09-20T14:19:32.748Z,17.90
2022-09-20T14:20:05.809Z,17.90
2022-09-20T14:20:38.182Z,17.90
2022-09-20T14:21:11.899Z,17.90
2022-09-20T14:21:44.846Z,17.90
2022-09-20T14:22:25.561Z,17.90
2022-09-20T14:22:59.231Z,18.00
2022-09-20T14:23:31.661Z,17.90
2022-09-20T14:24:11.972Z,17.90
2022-09-20T14:25:17.340Z,17.90
2022-09-20T14:26:20.293Z,17.90
2022-09-20T14:27:04.320Z,17.90
2022-09-20T14:27:36.084Z,17.90
2022-09-20T14:28:18.985Z,18.00
2022-09-20T14:28:51.242Z,17.90
2022-09-20T14:29:35.595Z,17.90
2022-09-20T14:30:27.851Z,18.00
2022-09-20T14:31:20.437Z,18.00
2022-09-20T14:31:55.229Z,20.80
2022-09-20T14:32:39.500Z,17.90
2022-09-20T14:33:18.703Z,18.00
2022-09-20T14:33:55.401Z,18.00
2022-09-20T14:34:28.514Z,18.00
2022-09-20T14:35:21.979Z,18.00
2022-09-20T14:35:53.770Z,18.00
2022-09-20T14:36:29.487Z,18.80
2022-09-20T14:37:14.400Z,18.00
2022-09-20T14:37:49.285Z,18.00
2022-09-20T14:38:26.645Z,18.00
2022-09-20T14:39:03.516Z,18.10
2022-09-20T14:39:49.130Z,18.00
2022-09-20T14:40:23.094Z,16.00
2022-09-20T14:40:55.075Z,17.90
2022-09-20T14:41:35.890Z,18.00
2022-09-20T14:42:20.995Z,17.90
2022-09-20T14:43:00.126Z,18.10
2022-09-20T14:43:35.464Z,18.00
2022-09-20T14:44:24.546Z,18.00
2022-09-20T14:44:56.755Z,18.10
2022-09-20T14:45:43.078Z,18.00
2022-09-20T14:46:17.425Z,18.10
2022-09-20T14:46:49.330Z,18.00
2022-09-20T14:47:38.581Z,18.00
2022-09-20T14:48:11.430Z,17.90
2022-09-20T14:48:45.396Z,18.00
2022-09-20T14:49:26.231Z,17.90
2022-09-20T14:49:58.374Z,18.00
2022-09-20T14:50:38.041Z,18.00
2022-09-20T14:51:18.708Z,18.00
2022-09-20T14:51:53.052Z,18.00
2022-09-20T14:52:27.832Z,18.10
2022-09-20T14:53:02.993Z,18.00